createdAt,value
2017-07-02T00:00:50.530Z,1005.59
2017-07-02T00:01:49.959Z,1005.57
2017-07-02T00:02:49.658Z,1005.52
2017-07-02T00:03:47.867Z,1005.54
2017-07-02T00:04:50.972Z,1005.66
2017-07-02T00:05:48.179Z,1005.62
2017-07-02T00:06:48.887Z,1005.60
2017-07-02T00:08:54.558Z,1005.65
2017-07-02T00:09:51.395Z,1005.63
2017-07-02T00:10:53.836Z,1005.61
2017-07-02T00:11:52.391Z,1005.59
2017-07-02T00:12:54.096Z,1005.68
2017-07-02T00:13:55.723Z,1005.65
2017-07-02T00:14:54.235Z,1005.64
2017-07-02T00:15:51.002Z,1005.63
2017-07-02T00:16:49.636Z,1005.59
2017-07-02T00:17:49.047Z,1005.68
2017-07-02T00:18:46.584Z,1005.68
2017-07-02T00:19:44.011Z,1005.64
2017-07-02T00:20:42.740Z,1005.61
2017-07-02T00:21:41.414Z,1005.61
2017-07-02T00:22:41.770Z,1005.59
2017-07-02T00:23:45.123Z,1005.68
2017-07-02T00:24:41.949Z,1005.56
2017-07-02T00:25:45.408Z,1005.61
2017-07-02T00:26:46.022Z,1005.61
2017-07-02T00:27:44.546Z,1005.64
2017-07-02T00:30:01.707Z,1005.58
2017-07-02T00:31:04.687Z,1005.65
2017-07-02T00:32:01.270Z,1005.57
2017-07-02T00:33:03.103Z,1005.56
2017-07-02T00:35:19.583Z,1005.61
2017-07-02T00:36:19.188Z,1005.54
2017-07-02T00:38:24.536Z,1005.51
2017-07-02T00:39:21.859Z,1005.55
2017-07-02T00:40:27.436Z,1005.68
2017-07-02T00:41:26.903Z,1005.68
2017-07-02T00:42:29.416Z,1005.57
2017-07-02T00:43:29.899Z,1005.61
2017-07-02T00:44:28.385Z,1005.68
2017-07-02T00:45:27.811Z,1005.66
2017-07-02T00:46:28.303Z,1005.57
2017-07-02T00:47:25.831Z,1005.68
2017-07-02T00:48:22.406Z,1005.63
2017-07-02T00:49:21.333Z,1005.64
2017-07-02T00:50:20.415Z,1005.67
2017-07-02T00:51:24.953Z,1005.73
2017-07-02T00:52:22.742Z,1005.69
2017-07-02T00:53:25.320Z,1005.76
2017-07-02T00:54:28.771Z,1005.79
2017-07-02T00:55:26.211Z,1005.71
2017-07-02T00:56:24.655Z,1005.71
2017-07-02T00:57:25.088Z,1005.72
2017-07-02T00:58:23.799Z,1005.73
2017-07-02T00:59:21.307Z,1005.71
2017-07-02T01:00:20.127Z,1005.78
2017-07-02T01:01:22.804Z,1005.74
2017-07-02T01:02:20.506Z,1005.77
2017-07-02T01:03:20.279Z,1005.82
2017-07-02T01:04:22.900Z,1005.84
2017-07-02T01:05:22.627Z,1005.64
2017-07-02T01:06:23.243Z,1005.76
2017-07-02T01:07:21.503Z,1005.79
2017-07-02T01:08:23.012Z,1005.92
2017-07-02T01:09:22.385Z,1005.80
2017-07-02T01:10:21.655Z,1005.75
2017-07-02T01:11:20.350Z,1005.81
2017-07-02T01:13:29.935Z,1005.85
2017-07-02T01:15:35.591Z,1005.84
2017-07-02T01:19:07.291Z,1005.81
2017-07-02T01:20:10.978Z,1005.81
2017-07-02T01:21:08.587Z,1005.85
2017-07-02T01:24:36.890Z,1005.79
2017-07-02T01:25:33.631Z,1005.83
2017-07-02T01:26:39.987Z,1005.82
2017-07-02T01:27:40.335Z,1005.84
2017-07-02T01:28:37.932Z,1005.86
2017-07-02T01:29:38.381Z,1005.85
2017-07-02T01:30:43.885Z,1005.87
2017-07-02T01:31:52.999Z,1005.86
2017-07-02T01:32:57.482Z,1005.88
2017-07-02T01:36:22.390Z,1005.98
2017-07-02T01:37:21.858Z,1005.92
2017-07-02T01:38:23.711Z,1005.89
2017-07-02T01:41:55.559Z,1005.92
2017-07-02T01:42:52.175Z,1006.00
2017-07-02T01:43:54.756Z,1006.08
2017-07-02T01:44:57.428Z,1006.02
2017-07-02T01:45:54.073Z,1005.97
2017-07-02T01:48:01.248Z,1006.04
2017-07-02T01:50:16.093Z,1006.08
2017-07-02T01:51:14.287Z,1005.96
2017-07-02T01:52:15.675Z,1006.06
2017-07-02T01:53:16.155Z,1006.07
2017-07-02T01:54:14.800Z,1006.03
2017-07-02T01:55:15.900Z,1006.04
2017-07-02T01:56:18.441Z,1006.03
2017-07-02T01:57:23.311Z,1006.00
2017-07-02T01:58:20.913Z,1006.04
2017-07-02T02:00:37.060Z,1006.01
2017-07-02T02:02:43.528Z,1006.06
2017-07-02T02:03:44.419Z,1005.95
2017-07-02T02:05:53.019Z,1006.02
2017-07-02T02:06:52.095Z,1006.07
2017-07-02T02:07:51.847Z,1006.05
2017-07-02T02:08:48.782Z,1006.06
2017-07-02T02:09:50.243Z,1006.07
2017-07-02T02:12:02.214Z,1006.02
2017-07-02T02:12:59.251Z,1006.05
2017-07-02T02:15:13.051Z,1006.07
2017-07-02T02:16:10.943Z,1006.00
2017-07-02T02:17:08.747Z,1006.09
2017-07-02T02:18:07.374Z,1006.01
2017-07-02T02:19:07.271Z,1006.08
2017-07-02T02:21:17.139Z,1006.07
2017-07-02T02:23:29.643Z,1006.04
2017-07-02T02:25:43.587Z,1006.10
2017-07-02T02:26:43.498Z,1006.16
2017-07-02T02:27:46.375Z,1006.19
2017-07-02T02:28:44.378Z,1006.22
2017-07-02T02:29:41.201Z,1006.24
2017-07-02T02:31:56.723Z,1006.23
2017-07-02T02:32:54.419Z,1006.25
2017-07-02T02:34:59.987Z,1006.27
2017-07-02T02:35:58.631Z,1006.28
2017-07-02T02:36:58.139Z,1006.26
2017-07-02T02:38:00.079Z,1006.25
2017-07-02T02:38:57.760Z,1006.31
2017-07-02T02:39:58.968Z,1006.29
2017-07-02T02:41:01.179Z,1006.30
2017-07-02T02:41:59.463Z,1006.32
2017-07-02T02:42:58.719Z,1006.25
2017-07-02T02:43:57.042Z,1006.28
2017-07-02T02:44:55.336Z,1006.31
2017-07-02T02:45:55.691Z,1006.37
2017-07-02T02:46:57.955Z,1006.41
2017-07-02T02:47:54.600Z,1006.37
2017-07-02T02:48:51.395Z,1006.41
2017-07-02T02:49:55.255Z,1006.35
2017-07-02T02:50:51.742Z,1006.33
2017-07-02T02:51:50.719Z,1006.41
2017-07-02T02:52:48.883Z,1006.42
2017-07-02T02:53:46.594Z,1006.35
2017-07-02T02:54:44.197Z,1006.46
2017-07-02T02:55:40.999Z,1006.42
2017-07-02T02:56:39.210Z,1006.46
2017-07-02T02:57:37.040Z,1006.47
2017-07-02T02:58:35.244Z,1006.44
2017-07-02T02:59:34.679Z,1006.45
2017-07-02T03:01:40.107Z,1006.48
2017-07-02T03:02:36.598Z,1006.45
2017-07-02T03:03:33.743Z,1006.53
2017-07-02T03:04:30.499Z,1006.52
2017-07-02T03:05:27.099Z,1006.48
2017-07-02T03:06:24.603Z,1006.53
2017-07-02T03:07:21.209Z,1006.60
2017-07-02T03:08:19.351Z,1006.52
2017-07-02T03:09:17.586Z,1006.51
2017-07-02T03:10:14.765Z,1006.49
2017-07-02T03:11:12.406Z,1006.44
2017-07-02T03:12:08.902Z,1006.52
2017-07-02T03:13:08.377Z,1006.48
2017-07-02T03:14:10.537Z,1006.51
2017-07-02T03:15:07.963Z,1006.49
2017-07-02T03:16:06.725Z,1006.43
2017-07-02T03:17:06.219Z,1006.60
2017-07-02T03:18:03.851Z,1006.51
2017-07-02T03:19:01.994Z,1006.54
2017-07-02T03:19:59.583Z,1006.61
2017-07-02T03:20:57.261Z,1006.52
2017-07-02T03:21:57.147Z,1006.57
2017-07-02T03:22:54.755Z,1006.61
2017-07-02T03:23:52.624Z,1006.51
2017-07-02T03:24:49.263Z,1006.61
2017-07-02T03:25:49.755Z,1006.58
2017-07-02T03:26:47.755Z,1006.68
2017-07-02T03:27:48.012Z,1006.61
2017-07-02T03:28:47.619Z,1006.64
2017-07-02T03:29:45.259Z,1006.60
2017-07-02T03:30:42.256Z,1006.65
2017-07-02T03:31:41.264Z,1006.66
2017-07-02T03:32:38.777Z,1006.71
2017-07-02T03:33:36.962Z,1006.70
2017-07-02T03:34:34.454Z,1006.67
2017-07-02T03:35:32.102Z,1006.63
2017-07-02T03:36:30.031Z,1006.64
2017-07-02T03:37:27.799Z,1006.64
2017-07-02T03:38:24.820Z,1006.61
2017-07-02T03:39:22.166Z,1006.62
2017-07-02T03:40:19.262Z,1006.63
2017-07-02T03:41:16.867Z,1006.66
2017-07-02T03:42:14.159Z,1006.68
2017-07-02T03:43:12.323Z,1006.68
2017-07-02T03:44:09.532Z,1006.68
2017-07-02T03:45:06.907Z,1006.72
2017-07-02T03:46:05.334Z,1006.74
2017-07-02T03:47:02.432Z,1006.64
2017-07-02T03:48:03.407Z,1006.71
2017-07-02T03:49:00.012Z,1006.72
2017-07-02T03:49:57.819Z,1006.72
2017-07-02T03:50:55.591Z,1006.78
2017-07-02T03:51:52.544Z,1006.76
2017-07-02T03:52:49.352Z,1006.74
2017-07-02T03:53:47.069Z,1006.74
2017-07-02T03:54:44.276Z,1006.75
2017-07-02T03:55:42.846Z,1006.76
2017-07-02T03:56:41.719Z,1006.82
2017-07-02T03:57:38.624Z,1006.80
2017-07-02T03:58:37.506Z,1006.84
2017-07-02T03:59:36.055Z,1006.84
2017-07-02T04:00:33.882Z,1006.88
2017-07-02T04:01:31.159Z,1006.87
2017-07-02T04:02:29.522Z,1006.87
2017-07-02T04:03:26.583Z,1006.84
2017-07-02T04:04:23.968Z,1006.89
2017-07-02T04:05:20.834Z,1006.93
2017-07-02T04:06:17.643Z,1006.93
2017-07-02T04:07:14.129Z,1006.88
2017-07-02T04:08:10.935Z,1006.83
2017-07-02T04:09:07.335Z,1006.78
2017-07-02T04:10:04.255Z,1006.93
2017-07-02T04:11:00.658Z,1006.89
2017-07-02T04:11:57.143Z,1006.89
2017-07-02T04:12:53.604Z,1006.94
2017-07-02T04:13:50.216Z,1006.95
2017-07-02T04:14:46.924Z,1006.95
2017-07-02T04:15:43.306Z,1006.96
2017-07-02T04:16:40.470Z,1007.00
2017-07-02T04:17:36.882Z,1007.03
2017-07-02T04:18:33.476Z,1006.98
2017-07-02T04:19:29.822Z,1007.03
2017-07-02T04:20:26.182Z,1007.07
2017-07-02T04:21:22.422Z,1006.97
2017-07-02T04:22:18.670Z,1007.08
2017-07-02T04:23:14.897Z,1007.05
2017-07-02T04:24:11.130Z,1007.02
2017-07-02T04:25:07.351Z,1007.05
2017-07-02T04:26:03.646Z,1007.01
2017-07-02T04:26:59.950Z,1007.03
2017-07-02T04:27:56.234Z,1007.06
2017-07-02T04:28:52.527Z,1007.15
2017-07-02T04:29:48.794Z,1007.06
2017-07-02T04:30:45.034Z,1007.06
2017-07-02T04:31:41.258Z,1007.07
2017-07-02T04:32:37.499Z,1007.16
2017-07-02T04:33:33.718Z,1007.07
2017-07-02T04:34:29.938Z,1007.05
2017-07-02T04:35:26.170Z,1007.12
2017-07-02T04:36:22.394Z,1007.07
2017-07-02T04:37:18.640Z,1007.11
2017-07-02T04:38:14.862Z,1007.09
2017-07-02T04:39:11.102Z,1007.18
2017-07-02T04:40:07.762Z,1007.14
2017-07-02T04:41:04.007Z,1007.16
2017-07-02T04:42:00.239Z,1007.16
2017-07-02T04:42:56.487Z,1007.18
2017-07-02T04:43:52.717Z,1007.23
2017-07-02T04:44:48.945Z,1007.15
2017-07-02T04:45:45.934Z,1007.23
2017-07-02T04:46:42.158Z,1007.16
2017-07-02T04:47:38.445Z,1007.23
2017-07-02T04:48:34.674Z,1007.22
2017-07-02T04:49:30.917Z,1007.24
2017-07-02T04:50:27.150Z,1007.27
2017-07-02T04:51:23.386Z,1007.27
2017-07-02T04:52:19.654Z,1007.31
2017-07-02T04:53:15.890Z,1007.35
2017-07-02T04:54:12.122Z,1007.43
2017-07-02T04:55:08.363Z,1007.39
2017-07-02T04:56:04.586Z,1007.40
2017-07-02T04:57:00.823Z,1007.36
2017-07-02T04:57:57.041Z,1007.32
2017-07-02T04:58:53.272Z,1007.33
2017-07-02T04:59:49.510Z,1007.38
2017-07-02T05:00:45.749Z,1007.44
2017-07-02T05:01:41.991Z,1007.42
2017-07-02T05:02:38.225Z,1007.37
2017-07-02T05:03:34.478Z,1007.37
2017-07-02T05:04:30.710Z,1007.37
2017-07-02T05:05:26.941Z,1007.42
2017-07-02T05:06:23.203Z,1007.55
2017-07-02T05:07:19.438Z,1007.52
2017-07-02T05:08:15.681Z,1007.52
2017-07-02T05:09:11.922Z,1007.48
2017-07-02T05:10:08.150Z,1007.53
2017-07-02T05:11:04.374Z,1007.50
2017-07-02T05:12:00.607Z,1007.52
2017-07-02T05:12:56.858Z,1007.59
2017-07-02T05:13:53.090Z,1007.57
2017-07-02T05:14:49.327Z,1007.58
2017-07-02T05:15:45.546Z,1007.60
2017-07-02T05:16:41.778Z,1007.58
2017-07-02T05:17:38.016Z,1007.62
2017-07-02T05:18:34.234Z,1007.62
2017-07-02T05:19:30.506Z,1007.61
2017-07-02T05:20:26.730Z,1007.70
2017-07-02T05:21:22.958Z,1007.66
2017-07-02T05:22:19.186Z,1007.66
2017-07-02T05:23:15.427Z,1007.67
2017-07-02T05:24:11.654Z,1007.72
2017-07-02T05:25:07.895Z,1007.66
2017-07-02T05:26:04.138Z,1007.75
2017-07-02T05:27:00.377Z,1007.78
2017-07-02T05:27:56.602Z,1007.68
2017-07-02T05:28:52.838Z,1007.69
2017-07-02T05:29:49.053Z,1007.78
2017-07-02T05:30:45.301Z,1007.85
2017-07-02T05:31:41.522Z,1007.86
2017-07-02T05:32:37.770Z,1007.87
2017-07-02T05:33:34.013Z,1007.86
2017-07-02T05:34:31.186Z,1007.91
2017-07-02T05:35:27.444Z,1007.86
2017-07-02T05:36:23.686Z,1007.90
2017-07-02T05:37:19.919Z,1007.88
2017-07-02T05:38:16.149Z,1007.93
2017-07-02T05:39:12.380Z,1007.88
2017-07-02T05:40:08.614Z,1007.93
2017-07-02T05:41:04.854Z,1008.00
2017-07-02T05:42:01.109Z,1008.08
2017-07-02T05:42:57.329Z,1008.01
2017-07-02T05:43:53.557Z,1008.01
2017-07-02T05:44:49.793Z,1008.08
2017-07-02T05:45:46.014Z,1008.10
2017-07-02T05:46:42.247Z,1008.11
2017-07-02T05:47:38.504Z,1008.09
2017-07-02T05:48:34.736Z,1008.15
2017-07-02T05:49:30.957Z,1008.06
2017-07-02T05:50:27.181Z,1008.13
2017-07-02T05:51:23.399Z,1008.18
2017-07-02T05:52:19.650Z,1008.21
2017-07-02T05:53:15.883Z,1008.18
2017-07-02T05:54:12.113Z,1008.23
2017-07-02T05:55:08.341Z,1008.28
2017-07-02T05:56:04.553Z,1008.19
2017-07-02T05:57:00.797Z,1008.27
2017-07-02T05:57:57.530Z,1008.28
2017-07-02T05:58:53.758Z,1008.24
2017-07-02T05:59:49.998Z,1008.28
2017-07-02T06:00:46.242Z,1008.27
2017-07-02T06:01:42.502Z,1008.32
2017-07-02T06:02:38.775Z,1008.29
2017-07-02T06:03:35.002Z,1008.33
2017-07-02T06:04:31.230Z,1008.35
2017-07-02T06:05:27.474Z,1008.29
2017-07-02T06:06:23.702Z,1008.30
2017-07-02T06:07:19.930Z,1008.27
2017-07-02T06:08:16.166Z,1008.28
2017-07-02T06:09:12.402Z,1008.27
2017-07-02T06:10:08.630Z,1008.35
2017-07-02T06:11:04.906Z,1008.28
2017-07-02T06:12:01.131Z,1008.33
2017-07-02T06:12:57.362Z,1008.34
2017-07-02T06:13:53.606Z,1008.30
2017-07-02T06:14:49.834Z,1008.26
2017-07-02T06:15:46.058Z,1008.31
2017-07-02T06:16:42.294Z,1008.31
2017-07-02T06:17:38.518Z,1008.44
2017-07-02T06:18:34.767Z,1008.36
2017-07-02T06:19:31.006Z,1008.34
2017-07-02T06:20:27.246Z,1008.36
2017-07-02T06:21:23.466Z,1008.33
2017-07-02T06:22:19.686Z,1008.43
2017-07-02T06:23:15.921Z,1008.42
2017-07-02T06:24:12.165Z,1008.41
2017-07-02T06:25:08.390Z,1008.34
2017-07-02T06:26:04.634Z,1008.30
2017-07-02T06:27:00.858Z,1008.35
2017-07-02T06:27:57.090Z,1008.33
2017-07-02T06:28:53.307Z,1008.38
2017-07-02T06:29:49.559Z,1008.43
2017-07-02T06:30:45.803Z,1008.43
2017-07-02T06:31:42.035Z,1008.44
2017-07-02T06:32:38.262Z,1008.47
2017-07-02T06:33:34.482Z,1008.53
2017-07-02T06:34:30.722Z,1008.48
2017-07-02T06:35:26.970Z,1008.50
2017-07-02T06:36:23.186Z,1008.52
2017-07-02T06:37:19.409Z,1008.65
2017-07-02T06:38:15.633Z,1008.52
2017-07-02T06:39:11.873Z,1008.62
2017-07-02T06:40:08.117Z,1008.61
2017-07-02T06:41:04.348Z,1008.55
2017-07-02T06:42:00.579Z,1008.59
2017-07-02T06:42:56.813Z,1008.58
2017-07-02T06:43:53.037Z,1008.58
2017-07-02T06:44:49.266Z,1008.60
2017-07-02T06:45:45.510Z,1008.60
2017-07-02T06:46:41.744Z,1008.60
2017-07-02T06:47:37.965Z,1008.55
2017-07-02T06:48:34.186Z,1008.63
2017-07-02T06:49:30.426Z,1008.60
2017-07-02T06:50:26.667Z,1008.60
2017-07-02T06:51:22.902Z,1008.60
2017-07-02T06:52:19.158Z,1008.57
2017-07-02T06:53:15.382Z,1008.61
2017-07-02T06:54:11.613Z,1008.59
2017-07-02T06:55:07.870Z,1008.60
2017-07-02T06:56:04.129Z,1008.51
2017-07-02T06:57:00.366Z,1008.52
2017-07-02T06:57:56.594Z,1008.59
2017-07-02T06:58:52.846Z,1008.63
2017-07-02T06:59:49.077Z,1008.70
2017-07-02T07:00:45.297Z,1008.65
2017-07-02T07:01:41.538Z,1008.58
2017-07-02T07:02:37.778Z,1008.67
2017-07-02T07:03:34.001Z,1008.63
2017-07-02T07:04:30.241Z,1008.66
2017-07-02T07:05:26.503Z,1008.61
2017-07-02T07:06:22.754Z,1008.65
2017-07-02T07:07:19.001Z,1008.65
2017-07-02T07:08:15.234Z,1008.55
2017-07-02T07:09:11.467Z,1008.59
2017-07-02T07:10:07.706Z,1008.59
2017-07-02T07:11:03.930Z,1008.53
2017-07-02T07:12:00.172Z,1008.58
2017-07-02T07:12:56.426Z,1008.58
2017-07-02T07:13:52.655Z,1008.55
2017-07-02T07:14:48.902Z,1008.60
2017-07-02T07:15:45.145Z,1008.49
2017-07-02T07:16:41.380Z,1008.57
2017-07-02T07:17:37.626Z,1008.51
2017-07-02T07:18:33.854Z,1008.54
2017-07-02T07:19:30.086Z,1008.51
2017-07-02T07:20:26.317Z,1008.51
2017-07-02T07:21:22.555Z,1008.53
2017-07-02T07:22:18.792Z,1008.58
2017-07-02T07:23:15.038Z,1008.46
2017-07-02T07:24:11.270Z,1008.55
2017-07-02T07:25:07.494Z,1008.46
2017-07-02T07:26:03.721Z,1008.55
2017-07-02T07:26:59.982Z,1008.50
2017-07-02T07:27:56.214Z,1008.52
2017-07-02T07:28:52.490Z,1008.62
2017-07-02T07:29:48.722Z,1008.59
2017-07-02T07:30:44.963Z,1008.57
2017-07-02T07:31:41.202Z,1008.51
2017-07-02T07:32:37.434Z,1008.52
2017-07-02T07:33:33.662Z,1008.56
2017-07-02T07:34:29.915Z,1008.57
2017-07-02T07:35:26.154Z,1008.55
2017-07-02T07:36:22.382Z,1008.53
2017-07-02T07:37:18.610Z,1008.53
2017-07-02T07:38:14.850Z,1008.51
2017-07-02T07:39:11.090Z,1008.47
2017-07-02T07:40:07.314Z,1008.46
2017-07-02T07:41:03.559Z,1008.41
2017-07-02T07:41:59.798Z,1008.47
2017-07-02T07:42:56.038Z,1008.46
2017-07-02T07:43:52.258Z,1008.52
2017-07-02T07:44:48.493Z,1008.45
2017-07-02T07:45:44.719Z,1008.62
2017-07-02T07:46:40.966Z,1008.59
2017-07-02T07:47:37.202Z,1008.62
2017-07-02T07:48:33.459Z,1008.54
2017-07-02T07:49:29.690Z,1008.63
2017-07-02T07:50:25.938Z,1008.59
2017-07-02T07:51:22.191Z,1008.67
2017-07-02T07:52:18.442Z,1008.71
2017-07-02T07:53:14.690Z,1008.72
2017-07-02T07:54:10.930Z,1008.69
2017-07-02T07:55:07.178Z,1008.73
2017-07-02T07:56:03.450Z,1008.67
2017-07-02T07:56:59.735Z,1008.73
2017-07-02T07:57:56.034Z,1008.66
2017-07-02T07:58:52.314Z,1008.69
2017-07-02T07:59:48.551Z,1008.63
2017-07-02T08:00:44.850Z,1008.59
2017-07-02T08:01:41.130Z,1008.65
2017-07-02T08:02:37.390Z,1008.61
2017-07-02T08:03:33.632Z,1008.58
2017-07-02T08:04:29.869Z,1008.51
2017-07-02T08:05:26.103Z,1008.49
2017-07-02T08:06:22.353Z,1008.55
2017-07-02T08:07:18.578Z,1008.50
2017-07-02T08:08:14.833Z,1008.50
2017-07-02T08:09:11.057Z,1008.49
2017-07-02T08:10:07.281Z,1008.63
2017-07-02T08:11:03.538Z,1008.60
2017-07-02T08:11:59.790Z,1008.61
2017-07-02T08:12:56.020Z,1008.56
2017-07-02T08:13:52.267Z,1008.58
2017-07-02T08:14:48.509Z,1008.56
2017-07-02T08:15:44.746Z,1008.64
2017-07-02T08:16:41.001Z,1008.58
2017-07-02T08:17:37.226Z,1008.65
2017-07-02T08:18:33.460Z,1008.67
2017-07-02T08:19:29.691Z,1008.63
2017-07-02T08:20:25.919Z,1008.65
2017-07-02T08:21:22.154Z,1008.70
2017-07-02T08:22:18.415Z,1008.66
2017-07-02T08:23:14.649Z,1008.67
2017-07-02T08:24:10.878Z,1008.69
2017-07-02T08:25:07.135Z,1008.64
2017-07-02T08:26:03.362Z,1008.76
2017-07-02T08:26:59.593Z,1008.72
2017-07-02T08:27:55.840Z,1008.74
2017-07-02T08:28:52.066Z,1008.77
2017-07-02T08:29:48.310Z,1008.67
2017-07-02T08:30:44.550Z,1008.69
2017-07-02T08:31:40.782Z,1008.67
2017-07-02T08:32:37.046Z,1008.72
2017-07-02T08:33:33.325Z,1008.71
2017-07-02T08:34:29.586Z,1008.74
2017-07-02T08:35:25.818Z,1008.71
2017-07-02T08:36:22.041Z,1008.70
2017-07-02T08:37:18.279Z,1008.72
2017-07-02T08:38:14.522Z,1008.78
2017-07-02T08:39:11.394Z,1008.70
2017-07-02T08:40:07.626Z,1008.69
2017-07-02T08:41:03.854Z,1008.73
2017-07-02T08:42:00.094Z,1008.65
2017-07-02T08:42:56.327Z,1008.72
2017-07-02T08:43:52.586Z,1008.73
2017-07-02T08:44:49.330Z,1008.64
2017-07-02T08:45:45.554Z,1008.66
2017-07-02T08:46:41.779Z,1008.73
2017-07-02T08:47:38.006Z,1008.62
2017-07-02T08:48:34.268Z,1008.72
2017-07-02T08:49:30.493Z,1008.76
2017-07-02T08:50:26.746Z,1008.68
2017-07-02T08:51:22.981Z,1008.73
2017-07-02T08:52:19.207Z,1008.75
2017-07-02T08:53:15.442Z,1008.74
2017-07-02T08:54:11.682Z,1008.70
2017-07-02T08:55:07.906Z,1008.67
2017-07-02T08:56:04.155Z,1008.70
2017-07-02T08:57:00.395Z,1008.70
2017-07-02T08:57:56.634Z,1008.67
2017-07-02T08:58:52.870Z,1008.62
2017-07-02T08:59:49.106Z,1008.73
2017-07-02T09:00:45.373Z,1008.68
2017-07-02T09:01:41.608Z,1008.67
2017-07-02T09:02:37.843Z,1008.69
2017-07-02T09:03:34.074Z,1008.60
2017-07-02T09:04:30.321Z,1008.71
2017-07-02T09:05:26.550Z,1008.59
2017-07-02T09:06:22.773Z,1008.70
2017-07-02T09:07:19.013Z,1008.65
2017-07-02T09:08:15.238Z,1008.63
2017-07-02T09:09:11.490Z,1008.65
2017-07-02T09:10:07.717Z,1008.78
2017-07-02T09:11:03.991Z,1008.75
2017-07-02T09:12:00.202Z,1008.70
2017-07-02T09:12:56.433Z,1008.81
2017-07-02T09:13:52.695Z,1008.72
2017-07-02T09:14:48.968Z,1008.73
2017-07-02T09:15:45.225Z,1008.72
2017-07-02T09:16:41.454Z,1008.72
2017-07-02T09:17:37.692Z,1008.78
2017-07-02T09:18:33.925Z,1008.75
2017-07-02T09:19:30.150Z,1008.85
2017-07-02T09:20:26.401Z,1008.73
2017-07-02T09:21:22.630Z,1008.69
2017-07-02T09:22:18.862Z,1008.80
2017-07-02T09:23:15.126Z,1008.80
2017-07-02T09:24:11.366Z,1008.79
2017-07-02T09:25:07.638Z,1008.82
2017-07-02T09:26:03.881Z,1008.81
2017-07-02T09:27:00.157Z,1008.72
2017-07-02T09:27:56.354Z,1008.75
2017-07-02T09:28:52.590Z,1008.75
2017-07-02T09:29:49.326Z,1008.83
2017-07-02T09:30:45.577Z,1008.81
2017-07-02T09:31:41.821Z,1008.85
2017-07-02T09:32:38.059Z,1008.85
2017-07-02T09:33:34.298Z,1008.85
2017-07-02T09:34:30.542Z,1008.80
2017-07-02T09:35:26.815Z,1008.87
2017-07-02T09:36:23.047Z,1008.88
2017-07-02T09:37:19.290Z,1008.95
2017-07-02T09:38:15.533Z,1008.93
2017-07-02T09:39:11.786Z,1008.92
2017-07-02T09:40:07.987Z,1008.87
2017-07-02T09:41:04.226Z,1008.87
2017-07-02T09:42:00.454Z,1008.92
2017-07-02T09:42:56.682Z,1008.94
2017-07-02T09:43:52.955Z,1008.95
2017-07-02T09:44:49.213Z,1008.91
2017-07-02T09:45:45.475Z,1008.93
2017-07-02T09:46:41.698Z,1008.85
2017-07-02T09:47:37.929Z,1008.90
2017-07-02T09:48:34.155Z,1008.89
2017-07-02T09:49:30.396Z,1008.88
2017-07-02T09:50:26.621Z,1008.91
2017-07-02T09:51:22.863Z,1008.89
2017-07-02T09:52:19.109Z,1008.93
2017-07-02T09:53:15.348Z,1008.91
2017-07-02T09:54:11.590Z,1008.88
2017-07-02T09:55:07.834Z,1008.81
2017-07-02T09:56:04.066Z,1008.84
2017-07-02T09:57:00.311Z,1008.88
2017-07-02T09:57:56.543Z,1008.83
2017-07-02T09:58:52.777Z,1008.90
2017-07-02T09:59:49.027Z,1008.85
2017-07-02T10:00:45.264Z,1008.84
2017-07-02T10:01:41.521Z,1008.86
2017-07-02T10:02:37.762Z,1008.83
2017-07-02T10:03:34.000Z,1008.83
2017-07-02T10:04:30.238Z,1008.94
2017-07-02T10:05:26.487Z,1008.82
2017-07-02T10:06:22.719Z,1008.91
2017-07-02T10:07:18.969Z,1008.88
2017-07-02T10:08:15.197Z,1008.92
2017-07-02T10:09:11.645Z,1008.90
2017-07-02T10:10:07.887Z,1008.91
2017-07-02T10:11:04.121Z,1008.85
2017-07-02T10:12:00.365Z,1008.85
2017-07-02T10:12:56.624Z,1008.95
2017-07-02T10:13:52.874Z,1008.84
2017-07-02T10:14:49.108Z,1008.92
2017-07-02T10:15:45.343Z,1008.92
2017-07-02T10:16:41.582Z,1008.91
2017-07-02T10:17:37.846Z,1008.87
2017-07-02T10:18:34.095Z,1008.94
2017-07-02T10:19:30.339Z,1008.90
2017-07-02T10:20:26.596Z,1008.91
2017-07-02T10:21:22.862Z,1008.90
2017-07-02T10:22:19.095Z,1008.92
2017-07-02T10:23:15.347Z,1008.92
2017-07-02T10:24:11.583Z,1008.94
2017-07-02T10:25:07.851Z,1008.99
2017-07-02T10:26:04.131Z,1008.98
2017-07-02T10:27:00.362Z,1008.94
2017-07-02T10:27:56.587Z,1008.91
2017-07-02T10:28:52.850Z,1008.93
2017-07-02T10:29:49.103Z,1008.94
2017-07-02T10:30:45.337Z,1008.97
2017-07-02T10:31:41.574Z,1008.98
2017-07-02T10:32:37.801Z,1009.02
2017-07-02T10:33:34.054Z,1009.02
2017-07-02T10:34:30.286Z,1009.02
2017-07-02T10:35:26.520Z,1009.00
2017-07-02T10:36:22.750Z,1009.01
2017-07-02T10:37:18.982Z,1008.99
2017-07-02T10:38:15.220Z,1008.90
2017-07-02T10:39:11.473Z,1008.96
2017-07-02T10:40:07.712Z,1008.96
2017-07-02T10:41:03.943Z,1008.99
2017-07-02T10:42:00.193Z,1008.93
2017-07-02T10:42:56.495Z,1008.97
2017-07-02T10:43:52.749Z,1008.90
2017-07-02T10:44:49.050Z,1008.90
2017-07-02T10:45:45.282Z,1008.88
2017-07-02T10:46:41.526Z,1008.86
2017-07-02T10:47:37.793Z,1008.91
2017-07-02T10:48:34.024Z,1008.90
2017-07-02T10:49:30.266Z,1008.92
2017-07-02T10:50:26.503Z,1008.92
2017-07-02T10:51:22.722Z,1008.93
2017-07-02T10:52:18.967Z,1008.90
2017-07-02T10:53:15.251Z,1008.96
2017-07-02T10:54:11.618Z,1008.91
2017-07-02T10:55:07.842Z,1008.95
2017-07-02T10:56:04.098Z,1008.94
2017-07-02T10:57:00.346Z,1008.95
2017-07-02T10:57:56.570Z,1008.96
2017-07-02T10:58:52.815Z,1008.96
2017-07-02T10:59:49.084Z,1008.88
2017-07-02T11:00:45.322Z,1008.95
2017-07-02T11:01:41.558Z,1008.95
2017-07-02T11:02:37.782Z,1008.94
2017-07-02T11:03:34.010Z,1008.93
2017-07-02T11:04:30.246Z,1009.00
2017-07-02T11:05:26.505Z,1008.99
2017-07-02T11:06:22.734Z,1009.05
2017-07-02T11:07:18.974Z,1009.04
2017-07-02T11:08:15.198Z,1008.99
2017-07-02T11:09:11.435Z,1008.92
2017-07-02T11:10:07.690Z,1009.01
2017-07-02T11:11:03.918Z,1009.01
2017-07-02T11:12:00.158Z,1009.06
2017-07-02T11:12:56.378Z,1009.02
2017-07-02T11:13:52.598Z,1009.01
2017-07-02T11:14:48.839Z,1008.89
2017-07-02T11:15:45.078Z,1009.01
2017-07-02T11:16:41.301Z,1008.94
2017-07-02T11:17:37.527Z,1008.90
2017-07-02T11:18:33.750Z,1008.83
2017-07-02T11:19:29.986Z,1008.88
2017-07-02T11:20:26.245Z,1008.83
2017-07-02T11:21:22.486Z,1008.91
2017-07-02T11:22:18.705Z,1008.88
2017-07-02T11:23:14.945Z,1008.90
2017-07-02T11:24:11.174Z,1008.87
2017-07-02T11:25:07.410Z,1008.99
2017-07-02T11:26:03.658Z,1008.93
2017-07-02T11:26:59.887Z,1008.84
2017-07-02T11:27:56.117Z,1008.89
2017-07-02T11:28:52.339Z,1009.00
2017-07-02T11:29:48.558Z,1008.97
2017-07-02T11:30:44.786Z,1009.03
2017-07-02T11:31:41.023Z,1009.05
2017-07-02T11:32:37.242Z,1008.99
2017-07-02T11:33:33.477Z,1008.99
2017-07-02T11:34:29.715Z,1008.96
2017-07-02T11:35:25.959Z,1009.02
2017-07-02T11:36:22.271Z,1008.98
2017-07-02T11:37:18.578Z,1008.98
2017-07-02T11:38:14.823Z,1008.95
2017-07-02T11:39:11.077Z,1008.99
2017-07-02T11:40:07.310Z,1009.05
2017-07-02T11:41:03.534Z,1009.02
2017-07-02T11:41:59.783Z,1009.00
2017-07-02T11:42:56.011Z,1008.98
2017-07-02T11:43:52.278Z,1008.98
2017-07-02T11:44:48.493Z,1008.98
2017-07-02T11:45:44.717Z,1009.06
2017-07-02T11:46:40.971Z,1008.96
2017-07-02T11:47:37.205Z,1009.02
2017-07-02T11:48:33.450Z,1008.98
2017-07-02T11:49:29.682Z,1008.99
2017-07-02T11:50:25.902Z,1008.99
2017-07-02T11:51:22.128Z,1008.99
2017-07-02T11:52:18.410Z,1009.03
2017-07-02T11:53:14.642Z,1008.95
2017-07-02T11:54:10.862Z,1008.95
2017-07-02T11:55:07.098Z,1008.96
2017-07-02T11:56:03.318Z,1009.00
2017-07-02T11:56:59.589Z,1009.02
2017-07-02T11:57:55.873Z,1009.00
2017-07-02T11:58:52.102Z,1009.02
2017-07-02T11:59:48.326Z,1008.96
2017-07-02T12:00:44.565Z,1008.96
2017-07-02T12:01:40.793Z,1009.01
2017-07-02T12:02:37.030Z,1008.99
2017-07-02T12:03:33.271Z,1009.00